1860 NOT_NAMED (1860011S13068)


IBTrACS version v04r00. Visit IBTrACS website for data access.
Please direct all questions to the IBTrACS Q and A forum

Storm track - Intensity - Wind Radii - Intensity Data - Source Data - All data

Summary Information

Storm ID 1860011S13068
Start Jan 11 06Z
End Jan 19 06Z
ATCF IDs
Track status Best track data.

Storm track plot

Map of storm track

Intensity plots

No Intensity information for this storm


Radial wind information

No radial wind information for this storm


Position and Intensity Table

BASIN ISO_TIME_________ NATURE LAT LON
degrees north degrees east
SI 1860-01-11 06:00:00 NR -13.40 68.30
SI 09:00:00 NR -13.42 68.29
SI 12:00:00 NR -13.44 68.26
SI 15:00:00 NR -13.48 68.22
SI 18:00:00 NR -13.54 68.14
SI 21:00:00 NR -13.64 68.02
SI 1860-01-12 00:00:00 NR -13.77 67.85
SI 03:00:00 NR -13.96 67.61
SI 06:00:00 NR -14.20 67.30
SI 09:00:00 NR -14.50 66.91
SI 12:00:00 NR -14.86 66.44
SI 15:00:00 NR -15.25 65.93
SI 18:00:00 NR -15.67 65.37
SI 21:00:00 NR -16.11 64.79
SI 1860-01-13 00:00:00 NR -16.55 64.21
SI 03:00:00 NR -16.98 63.64
SI 06:00:00 NR -17.40 63.10
SI 09:00:00 NR -17.79 62.60
SI 12:00:00 NR -18.17 62.12
SI 15:00:00 NR -18.53 61.65
SI 18:00:00 NR -18.88 61.22
SI 21:00:00 NR -19.21 60.82
SI 1860-01-14 00:00:00 NR -19.50 60.46
SI 03:00:00 NR -19.77 60.15
SI 06:00:00 NR -20.00 59.90
SI 09:00:00 NR -20.18 59.71
SI 12:00:00 NR -20.32 59.59
SI 15:00:00 NR -20.43 59.51
SI 18:00:00 NR -20.52 59.47
SI 21:00:00 NR -20.59 59.46
SI 1860-01-15 00:00:00 NR -20.66 59.47
SI 03:00:00 NR -20.72 59.49
SI 06:00:00 NR -20.80 59.50
SI 09:00:00 NR -20.87 59.43
SI 12:00:00 NR -20.94 59.35
SI 15:00:00 NR -21.01 59.29
SI 18:00:00 NR -21.10 59.23
SI 21:00:00 NR -21.22 59.20
SI 1860-01-16 00:00:00 NR -21.37 59.19
SI 03:00:00 NR -21.56 59.23
SI 06:00:00 NR -21.80 59.30
SI 09:00:00 NR -22.08 59.32
SI 12:00:00 NR -22.40 59.37
SI 15:00:00 NR -22.77 59.47
SI 18:00:00 NR -23.18 59.62
SI 21:00:00 NR -23.63 59.86
SI 1860-01-17 00:00:00 NR -24.12 60.19
SI 03:00:00 NR -24.64 60.63
SI 06:00:00 NR -25.20 61.20
SI 09:00:00 NR -25.86 62.08
SI 12:00:00 NR -26.56 63.12
SI 15:00:00 NR -27.27 64.27
SI 18:00:00 NR -27.98 65.48
SI 21:00:00 NR -28.64 66.70
SI 1860-01-18 00:00:00 NR -29.25 67.87
SI 03:00:00 NR -29.78 68.92
SI 06:00:00 NR -30.20 69.80
SI 09:00:00 NR -30.51 70.46
SI 12:00:00 NR -30.72 70.91
SI 15:00:00 NR -30.84 71.19
SI 18:00:00 NR -30.90 71.31
SI 21:00:00 NR -30.90 71.31
SI 1860-01-19 00:00:00 NR -30.86 71.23
SI 03:00:00 NR -30.78 71.08
SI 06:00:00 NR -30.70 70.90

Source Information

Agency Information
USA
TOKYO
CMA
HKO
NEWDELHI
REUNION WMO-Best-Tracks.txt:Line=242:xxxx860037
BOM
NADI
WELLINGTON
DS824
TD9636
TD9635
NEUMANN
MLC

All available IBTrACS Data

SEASON BASIN SUBBASIN ISO_TIME_________ NATURE LAT LON WMO AGENCY DIST2LAND LANDFALL IFLAG USA SSHS REUNION LAT REUNION LON REUNION TYPE REUNION TNUM STORM SPEED STORM DIR
Year degrees north degrees east km km 1 degrees north degrees east 1 kts degrees
1860 SI MM 1860-01-11 06:00:00 NR -13.40 68.30 reunion 1354 1354 _____O________ -1 -13.40 68.30 99 9.90 0 0
1860 SI MM 09:00:00 NR -13.42 68.29 1354 1354 _____P________ -1 -13.42 68.29 99 1 226
1860 SI MM 12:00:00 NR -13.44 68.26 1354 1339 _____P________ -1 -13.44 68.26 99 1 230
1860 SI MM 15:00:00 NR -13.48 68.22 1339 1330 _____P________ -1 -13.48 68.22 99 2 229
1860 SI MM 18:00:00 NR -13.54 68.14 1330 1315 _____P________ -1 -13.54 68.14 99 3 230
1860 SI MM 21:00:00 NR -13.64 68.02 1315 1293 _____P________ -1 -13.64 68.02 99 4 231
1860 SI MM 1860-01-12 00:00:00 NR -13.77 67.85 1284 1260 _____P________ -1 -13.77 67.85 99 5 231
1860 SI MM 03:00:00 NR -13.96 67.61 1254 1214 _____P________ -1 -13.96 67.61 99 7 231
1860 SI MM 06:00:00 NR -14.20 67.30 reunion 1214 1160 _____O________ -1 -14.20 67.30 99 9.90 9 232
1860 SI MM 09:00:00 NR -14.50 66.91 1160 1105 _____P________ -1 -14.50 66.91 99 11 232
1860 SI MM 12:00:00 NR -14.86 66.44 1090 1036 _____P________ -1 -14.86 66.44 99 12 232
1860 SI MM 15:00:00 NR -15.25 65.93 1027 957 _____P________ -1 -15.25 65.93 99 13 232
1860 SI MM 18:00:00 NR -15.67 65.37 951 873 _____P________ -1 -15.67 65.37 99 14 232
1860 SI MM 21:00:00 NR -16.11 64.79 873 795 _____P________ -1 -16.11 64.79 99 14 232
1860 SI MM 1860-01-13 00:00:00 NR -16.55 64.21 795 721 _____P________ -1 -16.55 64.21 99 14 232
1860 SI MM 03:00:00 NR -16.98 63.64 712 643 _____P________ -1 -16.98 63.64 99 14 231
1860 SI MM 06:00:00 NR -17.40 63.10 reunion 643 575 _____O________ -1 -17.40 63.10 99 9.90 13 231
1860 SI MM 09:00:00 NR -17.79 62.60 575 513 _____P________ -1 -17.79 62.60 99 12 231
1860 SI MM 12:00:00 NR -18.17 62.12 508 455 _____P________ -1 -18.17 62.12 99 12 230
1860 SI MM 15:00:00 NR -18.53 61.65 455 389 _____P________ -1 -18.53 61.65 99 11 230
1860 SI MM 18:00:00 NR -18.88 61.22 389 337 _____P________ -1 -18.88 61.22 99 10 230
1860 SI MM 21:00:00 NR -19.21 60.82 337 296 _____P________ -1 -19.21 60.82 99 10 229
1860 SI MM 1860-01-14 00:00:00 NR -19.50 60.46 296 256 _____P________ -1 -19.50 60.46 99 8 228
1860 SI MM 03:00:00 NR -19.77 60.15 256 221 _____P________ -1 -19.77 60.15 99 7 227
1860 SI MM 06:00:00 NR -20.00 59.90 reunion 221 198 _____O________ -1 -20.00 59.90 99 9.90 6 225
1860 SI MM 09:00:00 NR -20.18 59.71 198 187 _____P________ -1 -20.18 59.71 99 4 223
1860 SI MM 12:00:00 NR -20.32 59.59 187 177 _____P________ -1 -20.32 59.59 99 3 217
1860 SI MM 15:00:00 NR -20.43 59.51 177 177 _____P________ -1 -20.43 59.51 99 2 209
1860 SI MM 18:00:00 NR -20.52 59.47 178 178 _____P________ -1 -20.52 59.47 99 2 196
1860 SI MM 21:00:00 NR -20.59 59.46 180 180 _____P________ -1 -20.59 59.46 99 1 191
1860 SI MM 1860-01-15 00:00:00 NR -20.66 59.47 182 182 _____P________ -1 -20.66 59.47 99 1 0
1860 SI MM 03:00:00 NR -20.72 59.49 182 182 _____P________ -1 -20.72 59.49 99 1 165
1860 SI MM 06:00:00 NR -20.80 59.50 reunion 185 179 _____O________ -1 -20.80 59.50 99 9.90 2 199
1860 SI MM 09:00:00 NR -20.87 59.43 179 179 _____P________ -1 -20.87 59.43 99 2 225
1860 SI MM 12:00:00 NR -20.94 59.35 179 169 _____P________ -1 -20.94 59.35 99 2 222
1860 SI MM 15:00:00 NR -21.01 59.29 174 169 _____P________ -1 -21.01 59.29 99 2 214
1860 SI MM 18:00:00 NR -21.10 59.23 169 169 _____P________ -1 -21.10 59.23 99 2 200
1860 SI MM 21:00:00 NR -21.22 59.20 174 174 _____P________ -1 -21.22 59.20 99 3 190
1860 SI MM 1860-01-16 00:00:00 NR -21.37 59.19 185 185 _____P________ -1 -21.37 59.19 99 3 0
1860 SI MM 03:00:00 NR -21.56 59.23 198 198 _____P________ -1 -21.56 59.23 99 4 167
1860 SI MM 06:00:00 NR -21.80 59.30 reunion 220 220 _____O________ -1 -21.80 59.30 99 9.90 5 171
1860 SI MM 09:00:00 NR -22.08 59.32 243 243 _____P________ -1 -22.08 59.32 99 6 174
1860 SI MM 12:00:00 NR -22.40 59.37 275 275 _____P________ -1 -22.40 59.37 99 7 169
1860 SI MM 15:00:00 NR -22.77 59.47 317 317 _____P________ -1 -22.77 59.47 99 8 163
1860 SI MM 18:00:00 NR -23.18 59.62 359 359 _____P________ -1 -23.18 59.62 99 9 157
1860 SI MM 21:00:00 NR -23.63 59.86 414 414 _____P________ -1 -23.63 59.86 99 11 151
1860 SI MM 1860-01-17 00:00:00 NR -24.12 60.19 477 477 _____P________ -1 -24.12 60.19 99 12 145
1860 SI MM 03:00:00 NR -24.64 60.63 546 546 _____P________ -1 -24.64 60.63 99 14 140
1860 SI MM 06:00:00 NR -25.20 61.20 reunion 635 635 _____O________ -1 -25.20 61.20 99 9.90 18 133
1860 SI MM 09:00:00 NR -25.86 62.08 752 752 _____P________ -1 -25.86 62.08 99 22 128
1860 SI MM 12:00:00 NR -26.56 63.12 875 875 _____P________ -1 -26.56 63.12 99 24 126
1860 SI MM 15:00:00 NR -27.27 64.27 1013 1013 _____P________ -1 -27.27 64.27 99 25 124
1860 SI MM 18:00:00 NR -27.98 65.48 1151 1151 _____P________ -1 -27.98 65.48 99 26 123
1860 SI MM 21:00:00 NR -28.64 66.70 1282 1282 _____P________ -1 -28.64 66.70 99 25 121
1860 SI MM 1860-01-18 00:00:00 NR -29.25 67.87 1421 1421 _____P________ -1 -29.25 67.87 99 22 120
1860 SI MM 03:00:00 NR -29.78 68.92 1530 1530 _____P________ -1 -29.78 68.92 99 19 119
1860 SI MM 06:00:00 NR -30.20 69.80 reunion 1625 1625 _____O________ -1 -30.20 69.80 99 9.90 15 119
1860 SI MM 09:00:00 NR -30.51 70.46 1699 1699 _____P________ -1 -30.51 70.46 99 11 118
1860 SI MM 12:00:00 NR -30.72 70.91 1743 1743 _____P________ -1 -30.72 70.91 99 7 118
1860 SI MM 15:00:00 NR -30.84 71.19 1772 1772 _____P________ -1 -30.84 71.19 99 4 118
1860 SI MM 18:00:00 NR -30.90 71.31 1786 1786 _____P________ -1 -30.90 71.31 99 1 117
1860 SI MM 21:00:00 NR -30.90 71.31 1786 1779 _____P________ -1 -30.90 71.31 99 1 303
1860 SI MM 1860-01-19 00:00:00 NR -30.86 71.23 1779 1765 _____P________ -1 -30.86 71.23 99 2 299
1860 SI MM 03:00:00 NR -30.78 71.08 1765 1743 _____P________ -1 -30.78 71.08 99 3 299
1860 SI MM 06:00:00 NR -30.70 70.90 reunion 1743 _____O________ -1 -30.70 70.90 99 9.90 4 299